CDT,Max TemperatureF,Mean TemperatureF,Min TemperatureF,Max Dew PointF,MeanDew PointF,Min DewpointF,Max Humidity, Mean Humidity, Min Humidity, Max Sea Level PressureIn, Mean Sea Level PressureIn, Min Sea Level PressureIn, Max VisibilityMiles, Mean VisibilityMiles, Min VisibilityMiles, Max Wind SpeedMPH, Mean Wind SpeedMPH, Max Gust SpeedMPH,PrecipitationIn, CloudCover, Events, WindDirDegrees
2013-10-1,83,70,56,68,64,56,99,84,56,30.08,30.03,30.00,10,7,0,12,2,17,0.00,5,Fog,212
2013-10-2,76,70,65,71,69,65,98,92,82,30.12,30.07,30.03,10,5,1,9,3,,0.00,6,Rain-Thunderstorm,174
2013-10-3,87,77,68,70,67,62,97,76,45,30.06,30.01,29.95,10,9,3,15,7,22,0.02,1,Rain,189
2013-10-4,89,78,66,72,69,65,97,79,50,30.06,30.02,29.98,10,10,7,13,4,18,0.00,3,Rain,174
2013-10-5,80,74,68,73,70,67,98,92,76,30.02,29.96,29.84,10,8,2,16,6,22,1.71,5,Rain-Thunderstorm,181
2013-10-6,69,60,51,68,51,42,98,74,42,29.90,29.85,29.78,10,10,2,22,8,28,0.38,5,Rain-Thunderstorm,253
2013-10-7,67,56,46,51,48,45,95,76,50,30.17,30.03,29.87,10,10,7,15,7,22,0.00,4,Rain,265
2013-10-8,75,60,44,53,49,45,100,75,37,30.26,30.20,30.17,10,9,1,12,2,16,0.00,0,,110
2013-10-9,77,60,42,57,50,43,100,79,41,30.23,30.18,30.14,10,9,3,7,1,,0.00,0,,92
2013-10-10,80,64,49,60,55,49,100,79,45,30.19,30.13,30.07,10,8,0,7,1,,0.00,1,Fog,108
2013-10-11,81,66,52,58,55,52,99,76,42,30.11,30.06,30.01,10,6,1,9,2,,0.00,2,,151
2013-10-12,78,64,51,65,59,51,99,81,54,30.16,30.07,30.03,10,6,1,12,3,,0.00,2,Rain,235
2013-10-13,75,62,48,58,45,36,90,60,25,30.36,30.30,30.17,10,10,10,13,6,10,0.00,0,,4
2013-10-14,73,58,43,52,47,41,94,72,40,30.36,30.27,30.15,10,10,2,10,4,,0.00,0,,48
2013-10-15,70,61,53,66,60,51,93,87,79,30.14,30.00,29.92,10,10,5,13,5,17,0.01,5,Rain,183
2013-10-16,65,54,43,65,47,43,97,73,50,30.03,29.99,29.91,10,10,7,12,7,18,0.01,4,Rain,303
2013-10-17,61,50,40,50,46,40,99,86,58,30.01,29.97,29.94,10,9,5,15,4,20,0.17,4,Rain,236
2013-10-18,68,56,43,50,46,43,98,76,41,30.04,29.99,29.95,10,10,10,16,5,29,0.00,0,,255
2013-10-19,58,50,42,48,42,34,97,79,41,30.01,29.97,29.91,10,9,5,17,5,22,0.19,5,Rain,265
2013-10-20,68,54,41,45,42,38,93,67,39,30.02,29.98,29.94,10,10,10,20,9,25,0.00,0,,198
2013-10-21,58,49,39,49,44,34,90,77,60,30.06,29.99,29.96,10,10,10,13,7,18,0.00,3,,251
2013-10-22,57,44,31,47,36,31,100,75,42,30.08,29.97,29.82,10,10,5,16,3,22,0.03,4,Rain,194
2013-10-23,50,44,38,44,36,30,92,76,55,30.11,30.04,29.82,10,10,7,20,11,26,0.03,7,,296
2013-10-24,44,40,36,37,31,24,89,68,46,30.38,30.23,30.12,10,10,10,17,7,23,0.00,8,Rain,299
2013-10-25,52,40,27,31,28,24,95,67,33,30.52,30.41,30.27,10,10,10,9,5,,0.00,0,,254
2013-10-26,65,49,34,42,34,30,84,62,43,30.27,30.11,29.97,10,10,10,22,9,28,0.00,2,,239
2013-10-27,60,44,29,38,33,30,100,74,34,30.14,30.10,30.06,10,10,10,9,1,,0.00,0,,237
2013-10-28,66,47,29,41,34,29,100,73,29,30.31,30.22,30.10,10,10,7,6,1,,0.00,0,,109
2013-10-29,59,46,34,55,45,34,99,90,77,30.32,30.25,30.14,10,8,2,9,2,,0.08,4,Rain,112
2013-10-30,70,62,54,66,61,54,99,93,84,30.14,30.06,29.94,10,5,0,14,4,18,0.57,7,Fog-Rain,154
2013-10-31,68,61,54,66,62,52,97,93,88,29.94,29.62,29.38,10,8,2,21,13,44,1.62,8,Rain,206